Time;durP1;ratioP1;P1;durP2;ratioP2;P2;SDS_P1;SDS_P2;PMS_P1;PMS_P2;Temp;Humidity;BMP_temperature;BMP_pressure;BME280_temperature;BME280_humidity;BME280_pressure;Samples;Min_cycle;Max_cycle;Signal;HPM_P1;HPM_P2
2023/06/12 00:01:08;;;;;;;1999.90;999.90;;;15.60;99.40;;;;;;5034332;28;20050;-77
2023/06/12 00:03:34;;;;;;;1999.90;999.90;;;15.60;99.50;;;;;;5034952;28;20034;-77
2023/06/12 00:06:00;;;;;;;1999.90;999.90;;;15.60;99.40;;;;;;5034582;28;20042;-77
2023/06/12 00:08:41;;;;;;;1999.90;999.90;;;15.50;99.70;;;;;;5034738;28;20041;-77
2023/06/12 00:11:09;;;;;;;1999.90;999.90;;;15.50;99.90;;;;;;5034121;28;20032;-77
2023/06/12 00:13:36;;;;;;;1999.90;999.90;;;15.50;99.90;;;;;;5034629;28;20457;-77
2023/06/12 00:16:02;;;;;;;1999.90;999.90;;;15.40;99.90;;;;;;5034932;28;20104;-77
2023/06/12 00:18:27;;;;;;;1999.90;999.90;;;15.30;99.90;;;;;;5036024;28;20144;-77
2023/06/12 00:20:53;;;;;;;1999.90;999.90;;;15.30;99.90;;;;;;5054372;28;20038;-77
2023/06/12 00:23:18;;;;;;;1999.90;999.90;;;15.20;99.90;;;;;;5054563;28;20404;-77
2023/06/12 00:25:44;;;;;;;1999.90;999.90;;;15.20;99.90;;;;;;5054144;28;20044;-77
2023/06/12 00:28:10;;;;;;;1999.90;999.90;;;15.20;99.90;;;;;;5052947;28;20033;-77
2023/06/12 00:30:35;;;;;;;1999.90;999.90;;;15.20;99.90;;;;;;5054190;28;20108;-77
2023/06/12 00:33:01;;;;;;;1999.90;999.90;;;15.10;99.90;;;;;;5043193;28;20442;-77
2023/06/12 00:35:26;;;;;;;1999.90;999.90;;;15.10;99.90;;;;;;5052805;28;20460;-77
2023/06/12 00:37:52;;;;;;;1999.90;999.90;;;15.10;99.90;;;;;;5052742;28;20040;-77
2023/06/12 00:40:17;;;;;;;1999.90;999.90;;;15.10;99.90;;;;;;5054138;28;20034;-77
2023/06/12 00:42:45;;;;;;;1999.90;999.90;;;15.10;99.90;;;;;;5054055;28;20089;-77
2023/06/12 00:45:15;;;;;;;1999.90;999.90;;;15.00;99.90;;;;;;5042889;28;20033;-77
2023/06/12 00:47:42;;;;;;;1999.90;999.90;;;15.00;99.90;;;;;;5049311;28;20037;-77
2023/06/12 00:50:11;;;;;;;1999.90;999.90;;;15.00;99.90;;;;;;5054418;28;20386;-77
2023/06/12 00:52:39;;;;;;;1999.90;999.90;;;15.10;99.90;;;;;;5052320;28;20033;-77
2023/06/12 00:55:05;;;;;;;1999.90;999.90;;;15.00;99.90;;;;;;5045537;28;20026;-77
2023/06/12 00:57:32;;;;;;;1999.90;999.90;;;15.00;99.90;;;;;;5034204;28;20064;-77
2023/06/12 00:59:58;;;;;;;1999.90;999.90;;;15.00;99.90;;;;;;5052026;28;20109;-77
2023/06/12 01:02:26;;;;;;;1999.90;999.90;;;14.90;99.90;;;;;;5041186;28;20517;-77
2023/06/12 01:04:52;;;;;;;1999.90;999.90;;;14.90;99.90;;;;;;5036261;28;20036;-77
2023/06/12 01:07:34;;;;;;;1999.90;999.90;;;14.90;99.90;;;;;;5035945;28;20034;-77
2023/06/12 01:10:30;;;;;;;1999.90;999.90;;;14.80;99.90;;;;;;5035898;28;20038;-77
2023/06/12 01:12:56;;;;;;;1999.90;999.90;;;14.70;99.90;;;;;;5033641;28;20050;-77
2023/06/12 01:15:22;;;;;;;1999.90;999.90;;;14.70;99.90;;;;;;5037482;28;20466;-77
2023/06/12 01:17:47;;;;;;;1999.90;999.90;;;14.70;99.90;;;;;;5052758;28;20087;-77
2023/06/12 01:20:13;;;;;;;1999.90;999.90;;;14.70;99.90;;;;;;5057340;28;20048;-77
2023/06/12 01:22:47;;;;;;;1999.90;999.90;;;14.70;99.90;;;;;;5056943;28;20048;-77
2023/06/12 01:25:37;;;;;;;1999.90;999.90;;;14.70;99.90;;;;;;5041830;28;20057;-77
2023/06/12 01:28:30;;;;;;;1999.90;999.90;;;14.60;99.90;;;;;;5035801;28;20463;-77
2023/06/12 01:31:34;;;;;;;1999.90;999.90;;;14.60;99.90;;;;;;5042947;28;20065;-77
2023/06/12 01:34:15;;;;;;;1999.90;999.90;;;14.60;99.90;;;;;;5024492;28;20041;-77
2023/06/12 01:36:48;;;;;;;1999.90;999.90;;;14.60;99.90;;;;;;5054936;28;20038;-77
2023/06/12 01:39:16;;;;;;;1999.90;999.90;;;14.60;99.90;;;;;;5057164;28;20037;-77
2023/06/12 01:41:42;;;;;;;1999.90;999.90;;;14.60;99.90;;;;;;5056577;28;20037;-77
2023/06/12 01:44:09;;;;;;;1999.90;999.90;;;14.60;99.90;;;;;;5056592;28;20052;-77
2023/06/12 01:46:35;;;;;;;1999.90;999.90;;;14.60;99.90;;;;;;5044892;28;20053;-77
2023/06/12 01:49:06;;;;;;;1999.90;999.90;;;14.50;99.90;;;;;;5052313;28;20038;-77
2023/06/12 01:51:32;;;;;;;1999.90;999.90;;;14.50;99.90;;;;;;5056564;28;20026;-77
2023/06/12 01:53:57;;;;;;;1999.90;999.90;;;14.40;99.90;;;;;;5054980;28;20030;-77
2023/06/12 01:56:27;;;;;;;1999.90;999.90;;;14.50;99.90;;;;;;5055138;28;20045;-77
2023/06/12 01:58:53;;;;;;;1999.90;999.90;;;14.50;99.90;;;;;;5055332;28;20108;-77
2023/06/12 02:01:19;;;;;;;1999.90;999.90;;;14.50;99.90;;;;;;5054641;28;20041;-77
2023/06/12 02:03:48;;;;;;;1999.90;999.90;;;14.50;99.90;;;;;;5056613;28;20061;-77
2023/06/12 02:06:17;;;;;;;1999.90;999.90;;;14.50;99.90;;;;;;5056450;28;20045;-77
2023/06/12 02:08:43;;;;;;;1999.90;999.90;;;14.40;99.90;;;;;;5056156;28;20056;-77
2023/06/12 02:11:09;;;;;;;1999.90;999.90;;;14.40;99.90;;;;;;5048686;28;20037;-77
2023/06/12 02:13:35;;;;;;;1999.90;999.90;;;14.30;99.90;;;;;;5036036;28;20029;-77
2023/06/12 02:16:06;;;;;;;1999.90;999.90;;;14.30;99.90;;;;;;5051713;28;20041;-77
2023/06/12 02:18:32;;;;;;;1999.90;999.90;;;14.30;99.90;;;;;;5056156;28;20033;-77
2023/06/12 02:20:57;;;;;;;1999.90;999.90;;;14.20;99.90;;;;;;5055984;28;20039;-76
2023/06/12 02:23:23;;;;;;;1999.90;999.90;;;14.20;99.90;;;;;;5045782;28;20566;-78
2023/06/12 02:25:48;;;;;;;1999.90;999.90;;;14.10;99.90;;;;;;5034832;28;20119;-77
2023/06/12 02:28:14;;;;;;;1999.90;999.90;;;14.20;99.90;;;;;;5036407;28;20396;-77
2023/06/12 02:30:39;;;;;;;1999.90;999.90;;;14.20;99.90;;;;;;5048912;28;20037;-78
2023/06/12 02:33:09;;;;;;;1999.90;999.90;;;14.20;99.90;;;;;;5055321;28;20033;-77
2023/06/12 02:35:38;;;;;;;1999.90;999.90;;;14.20;99.90;;;;;;5041062;28;20042;-77
2023/06/12 02:38:04;;;;;;;1999.90;999.90;;;14.20;99.90;;;;;;5036093;28;20048;-77
2023/06/12 02:40:29;;;;;;;1999.90;999.90;;;14.10;99.90;;;;;;5036215;28;20045;-77
2023/06/12 02:42:55;;;;;;;1999.90;999.90;;;14.10;99.90;;;;;;5036012;28;20487;-77
2023/06/12 02:45:21;;;;;;;1999.90;999.90;;;14.10;99.90;;;;;;5045342;28;20041;-77
2023/06/12 02:47:47;;;;;;;1999.90;999.90;;;14.10;99.90;;;;;;5039416;28;20100;-77
2023/06/12 02:50:13;;;;;;;1999.90;999.90;;;14.10;99.90;;;;;;5034644;28;20388;-77
2023/06/12 02:52:40;;;;;;;1999.90;999.90;;;14.10;99.90;;;;;;5035902;28;20494;-77
2023/06/12 02:55:06;;;;;;;1999.90;999.90;;;14.00;99.90;;;;;;5034987;28;20057;-77
2023/06/12 02:57:32;;;;;;;1999.90;999.90;;;14.00;99.90;;;;;;5035864;28;20034;-77
2023/06/12 02:59:58;;;;;;;1999.90;999.90;;;14.10;99.90;;;;;;5046906;28;20034;-77
2023/06/12 03:02:23;;;;;;;1999.90;999.90;;;14.00;99.90;;;;;;5035693;28;20523;-77
2023/06/12 03:04:49;;;;;;;1999.90;999.90;;;14.00;99.90;;;;;;5035902;28;20057;-77
2023/06/12 03:07:16;;;;;;;1999.90;999.90;;;14.00;99.90;;;;;;5034512;28;20034;-77
2023/06/12 03:09:42;;;;;;;1999.90;999.90;;;14.00;99.90;;;;;;5052193;28;20080;-77
2023/06/12 03:12:08;;;;;;;1999.90;999.90;;;14.10;99.90;;;;;;5055397;28;20068;-77
2023/06/12 03:14:34;;;;;;;1999.90;999.90;;;14.10;99.90;;;;;;5049764;28;20441;-77
2023/06/12 03:16:59;;;;;;;1999.90;999.90;;;14.00;99.90;;;;;;5035475;28;20040;-77
2023/06/12 03:19:25;;;;;;;1999.90;999.90;;;14.00;99.90;;;;;;5035456;28;20114;-77
2023/06/12 03:21:51;;;;;;;1999.90;999.90;;;14.00;99.90;;;;;;5035514;28;20504;-77
2023/06/12 03:24:16;;;;;;;1999.90;999.90;;;14.00;99.90;;;;;;5035180;28;20045;-77
2023/06/12 03:26:42;;;;;;;1999.90;999.90;;;14.00;99.90;;;;;;5033116;28;20056;-77
2023/06/12 03:29:08;;;;;;;1999.90;999.90;;;14.00;99.90;;;;;;5035568;28;20030;-77
2023/06/12 03:31:33;;;;;;;1999.90;999.90;;;14.10;99.90;;;;;;5053105;28;20037;-77
2023/06/12 03:33:59;;;;;;;1999.90;999.90;;;14.00;99.90;;;;;;5033580;28;20034;-77
2023/06/12 03:36:25;;;;;;;1999.90;999.90;;;14.00;99.90;;;;;;5035397;28;20041;-77
2023/06/12 03:38:51;;;;;;;1999.90;999.90;;;14.00;99.90;;;;;;5034942;28;20048;-77
2023/06/12 03:41:20;;;;;;;1999.90;999.90;;;14.00;99.90;;;;;;5034791;28;20046;-77
2023/06/12 03:43:45;;;;;;;1999.90;999.90;;;14.00;99.90;;;;;;5038047;28;20037;-77
2023/06/12 03:46:11;;;;;;;1999.90;999.90;;;14.00;99.90;;;;;;5054835;28;20041;-77
2023/06/12 03:48:36;;;;;;;1999.90;999.90;;;14.00;99.90;;;;;;5055388;28;20034;-77
2023/06/12 03:51:02;;;;;;;1999.90;999.90;;;14.00;99.90;;;;;;5054596;28;20480;-77
2023/06/12 03:53:28;;;;;;;1999.90;999.90;;;14.10;99.90;;;;;;5054715;28;20034;-77
2023/06/12 03:55:53;;;;;;;1999.90;999.90;;;14.10;99.90;;;;;;5047619;28;20046;-77
2023/06/12 03:58:19;;;;;;;1999.90;999.90;;;14.10;99.90;;;;;;5036103;28;20034;-77
2023/06/12 04:00:47;;;;;;;1999.90;999.90;;;14.10;99.90;;;;;;5034845;28;20042;-77
2023/06/12 04:03:17;;;;;;;1999.90;999.90;;;14.10;99.90;;;;;;5033327;28;20041;-77
2023/06/12 04:05:45;;;;;;;1999.90;999.90;;;14.10;99.90;;;;;;5033171;28;20060;-77
2023/06/12 04:08:10;;;;;;;1999.90;999.90;;;14.20;99.90;;;;;;5044433;28;20119;-77
2023/06/12 04:10:36;;;;;;;1999.90;999.90;;;14.20;99.90;;;;;;5054783;28;20096;-77
2023/06/12 04:13:01;;;;;;;1999.90;999.90;;;14.20;99.90;;;;;;5047441;28;20049;-77
2023/06/12 04:15:29;;;;;;;1999.90;999.90;;;14.20;99.90;;;;;;5034822;28;20041;-79
2023/06/12 04:17:55;;;;;;;1999.90;999.90;;;14.20;99.90;;;;;;5034817;28;20038;-79
2023/06/12 04:20:20;;;;;;;1999.90;999.90;;;14.30;99.90;;;;;;5046943;28;20038;-79
2023/06/12 04:22:47;;;;;;;1999.90;999.90;;;14.40;99.90;;;;;;5052524;28;20041;-77
2023/06/12 04:25:13;;;;;;;1999.90;999.90;;;14.40;99.90;;;;;;5052937;28;20037;-79
2023/06/12 04:27:42;;;;;;;1999.90;999.90;;;14.40;99.90;;;;;;5054678;28;20510;-77
2023/06/12 04:30:09;;;;;;;1999.90;999.90;;;14.50;99.90;;;;;;5045005;28;20029;-79
2023/06/12 04:32:35;;;;;;;1999.90;999.90;;;14.50;99.90;;;;;;5048208;28;20095;-77
2023/06/12 04:35:01;;;;;;;1999.90;999.90;;;14.50;99.90;;;;;;5054209;28;20537;-77
2023/06/12 04:37:27;;;;;;;1999.90;999.90;;;14.60;99.90;;;;;;5054369;28;20091;-79
2023/06/12 04:39:53;;;;;;;1999.90;999.90;;;14.60;99.90;;;;;;5054625;28;20034;-79
2023/06/12 04:42:18;;;;;;;1999.90;999.90;;;14.70;99.90;;;;;;5054179;28;20061;-77
2023/06/12 04:44:46;;;;;;;1999.90;999.90;;;14.70;99.90;;;;;;5036816;28;20034;-77
2023/06/12 04:47:14;;;;;;;1999.90;999.90;;;14.80;99.90;;;;;;5034429;28;20030;-77
2023/06/12 04:49:40;;;;;;;1999.90;999.90;;;14.90;99.90;;;;;;5046892;28;20040;-77
2023/06/12 04:52:08;;;;;;;1999.90;999.90;;;15.00;99.90;;;;;;5052491;28;20517;-77
2023/06/12 04:54:38;;;;;;;1999.90;999.90;;;15.00;99.90;;;;;;5051915;28;20024;-76
2023/06/12 04:57:23;;;;;;;1999.90;999.90;;;15.00;99.90;;;;;;5054196;28;20034;-76
2023/06/12 04:59:48;;;;;;;1999.90;999.90;;;15.10;99.90;;;;;;5054098;28;20025;-76
2023/06/12 05:02:14;;;;;;;1999.90;999.90;;;15.20;99.90;;;;;;5053455;28;20037;-77
2023/06/12 05:04:40;;;;;;;1999.90;999.90;;;15.30;99.90;;;;;;5053917;28;20450;-77
2023/06/12 05:07:16;;;;;;;1999.90;999.90;;;15.30;99.90;;;;;;5041312;28;20036;-77
2023/06/12 05:09:46;;;;;;;1999.90;999.90;;;15.50;99.90;;;;;;5054047;28;20503;-77
2023/06/12 05:12:12;;;;;;;1999.90;999.90;;;15.60;99.90;;;;;;5053595;28;20042;-77
2023/06/12 05:14:39;;;;;;;1999.90;999.90;;;15.70;99.90;;;;;;5052517;28;20038;-79
2023/06/12 05:17:05;;;;;;;1999.90;999.90;;;15.80;99.90;;;;;;5052399;28;20041;-81
2023/06/12 05:19:30;;;;;;;1999.90;999.90;;;15.90;99.90;;;;;;5043087;28;20368;-79
2023/06/12 05:21:56;;;;;;;1999.90;999.90;;;16.10;99.90;;;;;;5034938;28;20384;-76
2023/06/12 05:24:21;;;;;;;1999.90;999.90;;;16.20;99.90;;;;;;5053502;28;20038;-79
2023/06/12 05:26:47;;;;;;;1999.90;999.90;;;16.40;99.90;;;;;;5031893;28;20040;-78
2023/06/12 05:29:12;;;;;;;1999.90;999.90;;;16.50;99.90;;;;;;5050713;28;20034;-79
2023/06/12 05:31:38;;;;;;;1999.90;999.90;;;16.60;99.90;;;;;;5044053;28;20103;-80
2023/06/12 05:34:03;;;;;;;1999.90;999.90;;;16.80;99.90;;;;;;5052895;28;20096;-78
2023/06/12 05:36:29;;;;;;;1999.90;999.90;;;16.90;99.90;;;;;;5054409;28;20025;-80
2023/06/12 05:38:55;;;;;;;1999.90;999.90;;;17.00;99.70;;;;;;5054045;28;20389;-79
2023/06/12 05:41:20;;;;;;;1999.90;999.90;;;17.10;99.60;;;;;;5053500;28;20049;-80
2023/06/12 05:43:46;;;;;;;1999.90;999.90;;;17.30;99.60;;;;;;5053775;28;20487;-81
2023/06/12 05:46:13;;;;;;;1999.90;999.90;;;17.30;99.30;;;;;;5056543;28;20037;-80
2023/06/12 05:48:38;;;;;;;1999.90;999.90;;;17.40;98.90;;;;;;5053348;28;20029;-80
2023/06/12 05:51:06;;;;;;;1999.90;999.90;;;17.50;98.80;;;;;;5057812;28;20087;-78
2023/06/12 05:53:32;;;;;;;1999.90;999.90;;;17.60;98.40;;;;;;5056780;28;20409;-79
2023/06/12 05:55:58;;;;;;;1999.90;999.90;;;17.70;98.50;;;;;;5056890;28;20041;-80
2023/06/12 05:58:23;;;;;;;1999.90;999.90;;;17.80;98.60;;;;;;5055758;28;20029;-79
2023/06/12 06:00:49;;;;;;;1999.90;999.90;;;17.90;98.30;;;;;;5055718;28;20451;-79
2023/06/12 06:03:18;;;;;;;1999.90;999.90;;;18.10;98.50;;;;;;5056781;28;20112;-79
2023/06/12 06:05:43;;;;;;;1999.90;999.90;;;18.20;97.90;;;;;;5055585;28;20577;-80
2023/06/12 06:08:10;;;;;;;1999.90;999.90;;;18.30;97.80;;;;;;5055506;28;20099;-79
2023/06/12 06:10:36;;;;;;;1999.90;999.90;;;18.40;97.40;;;;;;5055660;28;20029;-79
2023/06/12 06:13:01;;;;;;;1999.90;999.90;;;18.50;97.50;;;;;;5055554;28;20038;-79
2023/06/12 06:15:27;;;;;;;1999.90;999.90;;;18.60;97.10;;;;;;5058645;28;20033;-78
2023/06/12 06:17:52;;;;;;;1999.90;999.90;;;18.70;97.00;;;;;;5044834;28;20042;-79
2023/06/12 06:20:18;;;;;;;1999.90;999.90;;;18.80;96.90;;;;;;5038617;28;20395;-80
2023/06/12 06:22:44;;;;;;;1999.90;999.90;;;18.80;97.00;;;;;;5039314;28;20073;-78
2023/06/12 06:25:09;;;;;;;1999.90;999.90;;;19.00;97.00;;;;;;5042490;28;20407;-80
2023/06/12 06:27:35;;;;;;;1999.90;999.90;;;19.00;96.70;;;;;;5058885;28;20398;-80
2023/06/12 06:30:02;;;;;;;1999.90;999.90;;;19.10;96.70;;;;;;5057907;28;20085;-80
2023/06/12 06:32:28;;;;;;;1999.90;999.90;;;19.20;96.60;;;;;;5058179;28;20573;-80
2023/06/12 06:34:55;;;;;;;1999.90;999.90;;;19.30;96.50;;;;;;5063186;28;20094;-80
2023/06/12 06:37:20;;;;;;;1999.90;999.90;;;19.40;96.50;;;;;;5052068;28;20121;-82
2023/06/12 06:39:46;;;;;;;1999.90;999.90;;;19.50;96.50;;;;;;5046976;28;20057;-81
2023/06/12 06:42:11;;;;;;;1999.90;999.90;;;19.60;96.40;;;;;;5043641;28;20050;-82
2023/06/12 06:44:38;;;;;;;1999.90;999.90;;;19.70;96.10;;;;;;5038678;28;20030;-82
2023/06/12 06:47:03;;;;;;;1999.90;999.90;;;19.80;96.00;;;;;;5043733;28;20041;-84
2023/06/12 06:49:30;;;;;;;1999.90;999.90;;;19.90;95.60;;;;;;5056762;28;20036;-82
2023/06/12 06:51:56;;;;;;;1999.90;999.90;;;20.00;95.90;;;;;;5045234;28;20041;-81
2023/06/12 06:54:22;;;;;;;1999.90;999.90;;;20.10;95.60;;;;;;5039796;28;20042;-81
2023/06/12 06:56:48;;;;;;;1999.90;999.90;;;20.30;95.10;;;;;;5038740;28;20038;-81
2023/06/12 06:59:15;;;;;;;1999.90;999.90;;;20.40;94.80;;;;;;5038122;28;20095;-81
2023/06/12 07:01:41;;;;;;;1999.90;999.90;;;20.50;94.90;;;;;;5039625;28;20041;-81
2023/06/12 07:04:06;;;;;;;1999.90;999.90;;;20.60;94.50;;;;;;5039470;28;20026;-81
2023/06/12 07:06:33;;;;;;;1999.90;999.90;;;20.60;94.30;;;;;;5040308;28;20058;-81
2023/06/12 07:08:59;;;;;;;1999.90;999.90;;;20.90;95.00;;;;;;5038672;28;20037;-82
2023/06/12 07:11:24;;;;;;;1999.90;999.90;;;21.00;94.80;;;;;;5038256;28;20387;-81
2023/06/12 07:13:50;;;;;;;1999.90;999.90;;;21.40;94.00;;;;;;5039079;28;20400;-81
2023/06/12 07:16:16;;;;;;;1999.90;999.90;;;21.40;94.20;;;;;;5036900;28;20072;-80
2023/06/12 07:18:41;;;;;;;1999.90;999.90;;;21.40;94.60;;;;;;5036805;28;20487;-82
2023/06/12 07:21:07;;;;;;;1999.90;999.90;;;21.60;94.80;;;;;;5036786;28;20111;-82
2023/06/12 07:23:32;;;;;;;1999.90;999.90;;;21.60;93.60;;;;;;5038534;28;20033;-81
2023/06/12 07:25:58;;;;;;;1999.90;999.90;;;22.00;93.80;;;;;;5038540;28;20034;-82
2023/06/12 07:28:23;;;;;;;1999.90;999.90;;;22.10;93.90;;;;;;5036393;28;20034;-82
2023/06/12 07:30:50;;;;;;;1999.90;999.90;;;22.20;93.40;;;;;;5037828;28;20041;-82
2023/06/12 07:33:15;;;;;;;1999.90;999.90;;;22.40;93.30;;;;;;5038065;28;20732;-81
2023/06/12 07:35:41;;;;;;;1999.90;999.90;;;22.90;91.80;;;;;;5038234;28;20033;-81
2023/06/12 07:38:06;;;;;;;1999.90;999.90;;;23.30;91.90;;;;;;5047744;28;20044;-81
2023/06/12 07:40:32;;;;;;;1999.90;999.90;;;23.30;90.60;;;;;;5058782;28;20040;-81
2023/06/12 07:42:58;;;;;;;1999.90;999.90;;;23.50;91.30;;;;;;5045695;28;20077;-78
2023/06/12 07:45:23;;;;;;;1999.90;999.90;;;23.70;90.10;;;;;;5036904;28;20028;-81
2023/06/12 07:47:49;;;;;;;1999.90;999.90;;;23.90;88.10;;;;;;5034818;28;20387;-79
2023/06/12 07:50:15;;;;;;;1999.90;999.90;;;24.00;86.40;;;;;;5036718;28;20046;-80
2023/06/12 07:52:41;;;;;;;1999.90;999.90;;;24.10;87.50;;;;;;5036483;28;20038;-76
2023/06/12 07:55:07;;;;;;;1999.90;999.90;;;24.00;86.10;;;;;;5041316;28;20495;-80
2023/06/12 07:57:32;;;;;;;1999.90;999.90;;;24.20;85.00;;;;;;5055819;28;20037;-76
2023/06/12 07:59:58;;;;;;;1999.90;999.90;;;24.40;85.50;;;;;;5048383;28;20030;-77
2023/06/12 08:02:28;;;;;;;1999.90;999.90;;;24.50;85.30;;;;;;5035381;28;20053;-81
2023/06/12 08:04:55;;;;;;;1999.90;999.90;;;24.60;85.40;;;;;;5035266;28;20034;-80
2023/06/12 08:07:21;;;;;;;1999.90;999.90;;;24.50;84.50;;;;;;5034620;28;20038;-80
2023/06/12 08:09:47;;;;;;;1999.90;999.90;;;24.80;85.40;;;;;;5034752;28;20577;-78
2023/06/12 08:12:13;;;;;;;1999.90;999.90;;;24.90;83.70;;;;;;5034300;28;20037;-77
2023/06/12 08:14:39;;;;;;;1999.90;999.90;;;24.90;84.80;;;;;;5034973;28;20502;-78
2023/06/12 08:17:05;;;;;;;1999.90;999.90;;;25.30;82.10;;;;;;5034811;28;20328;-78
2023/06/12 08:19:32;;;;;;;1999.90;999.90;;;25.10;82.40;;;;;;5034949;28;20570;-78
2023/06/12 08:21:59;;;;;;;1999.90;999.90;;;25.30;81.90;;;;;;5034523;28;20037;-78
2023/06/12 08:24:29;;;;;;;1999.90;999.90;;;25.20;80.80;;;;;;5034744;28;20030;-77
2023/06/12 08:26:55;;;;;;;1999.90;999.90;;;25.10;80.50;;;;;;5034825;28;20037;-77
2023/06/12 08:29:21;;;;;;;1999.90;999.90;;;25.30;82.30;;;;;;5051052;28;20030;-78
2023/06/12 08:31:46;;;;;;;1999.90;999.90;;;25.40;80.40;;;;;;5054397;28;20408;-78
2023/06/12 08:34:12;;;;;;;1999.90;999.90;;;25.50;78.50;;;;;;5038384;28;20033;-78
2023/06/12 08:36:38;;;;;;;1999.90;999.90;;;25.60;79.60;;;;;;5039902;28;20390;-78
2023/06/12 08:39:04;;;;;;;1999.90;999.90;;;25.90;78.20;;;;;;5054534;28;20113;-78
2023/06/12 08:41:32;;;;;;;1999.90;999.90;;;25.80;77.00;;;;;;5054330;28;20056;-79
2023/06/12 08:44:01;;;;;;;1999.90;999.90;;;26.00;78.20;;;;;;5054202;28;20108;-79
2023/06/12 08:46:30;;;;;;;1999.90;999.90;;;26.20;76.60;;;;;;5053896;28;20037;-78
2023/06/12 08:48:59;;;;;;;1999.90;999.90;;;26.30;77.10;;;;;;5054343;28;20088;-78
2023/06/12 08:51:25;;;;;;;1999.90;999.90;;;26.40;76.90;;;;;;5054090;28;20063;-80
2023/06/12 08:53:51;;;;;;;1999.90;999.90;;;26.40;76.20;;;;;;5052915;28;20073;-79
2023/06/12 08:56:18;;;;;;;1999.90;999.90;;;26.40;76.70;;;;;;5053469;28;20562;-79
2023/06/12 08:58:44;;;;;;;1999.90;999.90;;;26.50;75.70;;;;;;5054065;28;20041;-80
2023/06/12 09:01:12;;;;;;;1999.90;999.90;;;27.10;75.10;;;;;;5036408;28;20533;-79
2023/06/12 09:03:43;;;;;;;1999.90;999.90;;;27.10;74.30;;;;;;5034491;28;20028;-79
2023/06/12 09:06:11;;;;;;;1999.90;999.90;;;27.00;75.20;;;;;;5034374;28;20061;-79
2023/06/12 09:08:38;;;;;;;1999.90;999.90;;;26.30;74.40;;;;;;5034695;28;20033;-79
2023/06/12 09:11:04;;;;;;;1999.90;999.90;;;25.80;76.00;;;;;;5038632;28;20040;-82
2023/06/12 09:13:42;;;;;;;1999.90;999.90;;;25.60;75.40;;;;;;5039950;28;20083;-77
2023/06/12 09:16:14;;;;;;;1999.90;999.90;;;25.60;76.00;;;;;;5059871;28;20056;-81
2023/06/12 09:18:53;;;;;;;1999.90;999.90;;;25.50;74.00;;;;;;5061142;28;20043;-80
2023/06/12 09:21:21;;;;;;;1999.90;999.90;;;25.40;73.90;;;;;;5061014;28;20503;-80
2023/06/12 09:23:55;;;;;;;1999.90;999.90;;;25.10;72.90;;;;;;5061034;28;20029;-82
2023/06/12 09:26:24;;;;;;;1999.90;999.90;;;25.30;73.30;;;;;;5066063;28;20091;-80
2023/06/12 09:28:53;;;;;;;1999.90;999.90;;;25.90;72.90;;;;;;5060749;28;20136;-81
2023/06/12 09:31:20;;;;;;;1999.90;999.90;;;26.00;71.30;;;;;;5041430;28;20030;-81
2023/06/12 09:33:45;;;;;;;1999.90;999.90;;;25.80;73.70;;;;;;5041229;28;20144;-79
2023/06/12 09:36:12;;;;;;;1999.90;999.90;;;26.10;73.50;;;;;;5060460;28;20523;-80
2023/06/12 09:38:38;;;;;;;1999.90;999.90;;;26.50;69.80;;;;;;5064308;28;20048;-80
2023/06/12 09:41:06;;;;;;;1999.90;999.90;;;27.00;70.80;;;;;;5065000;28;20037;-80
2023/06/12 09:43:32;;;;;;;1999.90;999.90;;;27.50;68.60;;;;;;5066348;28;20030;-80
2023/06/12 09:46:00;;;;;;;1999.90;999.90;;;27.30;67.80;;;;;;5067315;28;20040;-79
2023/06/12 09:48:35;;;;;;;1999.90;999.90;;;27.40;66.80;;;;;;5066179;28;20487;-80
2023/06/12 09:51:08;;;;;;;1999.90;999.90;;;28.30;68.20;;;;;;5065919;28;20089;-81
2023/06/12 09:53:38;;;;;;;1999.90;999.90;;;28.40;66.60;;;;;;5067321;28;20044;-80
2023/06/12 09:56:06;;;;;;;1999.90;999.90;;;28.40;67.40;;;;;;5064965;28;20041;-81
2023/06/12 09:58:36;;;;;;;1999.90;999.90;;;28.60;65.00;;;;;;5066845;28;20033;-80
2023/06/12 10:01:05;;;;;;;1999.90;999.90;;;28.70;63.80;;;;;;5066269;28;20034;-80
2023/06/12 10:03:34;;;;;;;1999.90;999.90;;;29.10;63.50;;;;;;5066671;28;20109;-80
2023/06/12 10:06:02;;;;;;;1999.90;999.90;;;29.00;61.40;;;;;;5066771;28;20088;-80
2023/06/12 10:08:30;;;;;;;1999.90;999.90;;;29.70;60.50;;;;;;5061770;28;20030;-81
2023/06/12 10:10:55;;;;;;;1999.90;999.90;;;29.60;60.00;;;;;;5058441;28;20033;-81
2023/06/12 10:13:22;;;;;;;1999.90;999.90;;;29.90;59.60;;;;;;5058457;28;20071;-81
2023/06/12 10:15:49;;;;;;;1999.90;999.90;;;29.30;59.80;;;;;;5059769;28;20045;-80
2023/06/12 10:18:17;;;;;;;1999.90;999.90;;;29.20;59.90;;;;;;5058309;28;20192;-79
2023/06/12 10:20:44;;;;;;;1999.90;999.90;;;28.30;61.10;;;;;;5058704;28;20108;-78
2023/06/12 10:23:11;;;;;;;1999.90;999.90;;;28.10;61.90;;;;;;5058929;28;20048;-76
2023/06/12 10:25:36;;;;;;;1999.90;999.90;;;28.30;60.00;;;;;;5058591;28;20103;-78
2023/06/12 10:28:02;;;;;;;1999.90;999.90;;;28.70;62.80;;;;;;5059302;28;20096;-78
2023/06/12 10:30:28;;;;;;;1999.90;999.90;;;29.20;59.00;;;;;;5058115;28;20083;-80
2023/06/12 10:32:54;;;;;;;1999.90;999.90;;;28.80;58.10;;;;;;5059192;28;20100;-81
2023/06/12 10:35:30;;;;;;;1999.90;999.90;;;28.70;58.30;;;;;;5059086;28;20509;-77
2023/06/12 10:37:56;;;;;;;1999.90;999.90;;;28.90;61.40;;;;;;5060134;28;20099;-77
2023/06/12 10:40:23;;;;;;;1999.90;999.90;;;29.20;59.70;;;;;;5056265;28;20033;-76
2023/06/12 10:42:54;;;;;;;1999.90;999.90;;;29.30;59.30;;;;;;5055727;28;20049;-74
2023/06/12 10:45:28;;;;;;;1999.90;999.90;;;29.10;60.70;;;;;;5054455;28;20129;-74
2023/06/12 10:48:03;;;;;;;1999.90;999.90;;;29.10;59.30;;;;;;5055956;28;20030;-74
2023/06/12 10:50:30;;;;;;;1999.90;999.90;;;29.60;58.60;;;;;;5056571;28;20034;-77
2023/06/12 10:52:59;;;;;;;1999.90;999.90;;;29.70;56.80;;;;;;5055033;28;20519;-77
2023/06/12 10:55:28;;;;;;;1999.90;999.90;;;29.70;57.00;;;;;;5054653;28;20549;-76
2023/06/12 10:57:59;;;;;;;1999.90;999.90;;;29.70;57.60;;;;;;5056581;28;20040;-76
2023/06/12 11:00:33;;;;;;;1999.90;999.90;;;29.60;57.20;;;;;;5056937;28;20030;-75
2023/06/12 11:03:12;;;;;;;1999.90;999.90;;;29.40;58.00;;;;;;5056424;28;20029;-79
2023/06/12 11:05:45;;;;;;;1999.90;999.90;;;29.60;58.40;;;;;;5054780;28;20029;-76
2023/06/12 11:08:11;;;;;;;1999.90;999.90;;;29.90;62.00;;;;;;5042124;28;20049;-76
2023/06/12 11:10:38;;;;;;;1999.90;999.90;;;30.00;59.10;;;;;;5044902;28;20026;-76
2023/06/12 11:13:04;;;;;;;1999.90;999.90;;;30.40;59.80;;;;;;5036198;28;20030;-75
2023/06/12 11:15:32;;;;;;;1999.90;999.90;;;30.00;56.20;;;;;;5034649;28;20029;-75
2023/06/12 11:17:58;;;;;;;1999.90;999.90;;;29.50;56.30;;;;;;5035993;28;20044;-76
2023/06/12 11:20:24;;;;;;;1999.90;999.90;;;29.70;57.40;;;;;;5037709;28;20030;-75
2023/06/12 11:22:58;;;;;;;1999.90;999.90;;;29.20;57.50;;;;;;5034470;28;20042;-76
2023/06/12 11:25:25;;;;;;;1999.90;999.90;;;29.40;56.30;;;;;;5035762;28;20030;-77
2023/06/12 11:27:52;;;;;;;1999.90;999.90;;;28.70;58.70;;;;;;5037602;28;20492;-77
2023/06/12 11:30:19;;;;;;;1999.90;999.90;;;29.00;57.70;;;;;;5053286;28;20034;-77
2023/06/12 11:32:44;;;;;;;1999.90;999.90;;;29.50;57.50;;;;;;5055588;28;20033;-76
2023/06/12 11:35:11;;;;;;;1999.90;999.90;;;29.80;55.80;;;;;;5055312;28;20033;-78
2023/06/12 11:37:39;;;;;;;1999.90;999.90;;;30.50;55.20;;;;;;5055566;28;20118;-76
2023/06/12 11:40:14;;;;;;;1999.90;999.90;;;30.70;53.50;;;;;;5055102;28;20104;-77
2023/06/12 11:42:44;;;;;;;1999.90;999.90;;;30.00;53.60;;;;;;5055105;28;20044;-76
2023/06/12 11:45:12;;;;;;;1999.90;999.90;;;30.20;56.70;;;;;;5053952;28;20053;-74
2023/06/12 11:47:38;;;;;;;1999.90;999.90;;;30.80;53.20;;;;;;5054367;28;20616;-75
2023/06/12 11:50:06;;;;;;;1999.90;999.90;;;30.50;54.30;;;;;;5055276;28;20482;-76
2023/06/12 11:52:33;;;;;;;1999.90;999.90;;;30.60;55.10;;;;;;5053094;28;20033;-76
2023/06/12 11:55:11;;;;;;;1999.90;999.90;;;30.90;55.00;;;;;;5035189;28;20120;-74
2023/06/12 11:57:38;;;;;;;1999.90;999.90;;;30.50;53.20;;;;;;5033821;28;20038;-75
2023/06/12 12:00:15;;;;;;;1999.90;999.90;;;30.70;55.50;;;;;;5034642;28;20038;-75